Time;durP1;ratioP1;P1;durP2;ratioP2;P2;SDS_P1;SDS_P2;PMS_P1;PMS_P2;Temp;Humidity;BMP_temperature;BMP_pressure;BME280_temperature;BME280_humidity;BME280_pressure;Samples;Min_cycle;Max_cycle;Signal;HPM_P1;HPM_P2
2021/04/09 00:02:16;;;;;;;19.20;9.77;;;1.40;99.90;;;;;;4936339;29;20212;-88
2021/04/09 00:04:42;;;;;;;21.07;10.13;;;2.10;99.90;;;;;;4935863;29;20187;-88
2021/04/09 00:07:08;;;;;;;18.87;9.90;;;1.10;99.90;;;;;;4936333;29;20188;-88
2021/04/09 00:09:34;;;;;;;25.93;10.37;;;1.80;99.90;;;;;;4932160;29;20630;-87
2021/04/09 00:12:00;;;;;;;20.20;9.57;;;2.30;99.90;;;;;;4933150;29;20183;-88
2021/04/09 00:14:26;;;;;;;19.77;9.87;;;2.90;99.90;;;;;;4933238;29;20188;-88
2021/04/09 00:16:52;;;;;;;23.27;9.53;;;2.70;99.90;;;;;;4932558;29;20195;-87
2021/04/09 00:19:21;;;;;;;21.57;9.17;;;1.50;99.90;;;;;;4932669;29;20230;-90
2021/04/09 00:21:47;;;;;;;17.67;9.40;;;1.10;99.90;;;;;;4917676;29;20247;-89
2021/04/09 00:24:12;;;;;;;22.27;10.30;;;1.10;99.90;;;;;;4916729;29;20642;-88
2021/04/09 00:26:38;;;;;;;21.73;10.17;;;1.10;99.90;;;;;;4917335;29;20276;-89
2021/04/09 00:29:05;;;;;;;22.30;9.50;;;1.20;99.90;;;;;;4917978;29;20181;-88
2021/04/09 00:31:31;;;;;;;18.17;9.33;;;3.00;99.90;;;;;;4917986;29;20214;-89
2021/04/09 00:33:57;;;;;;;20.50;9.57;;;1.10;99.90;;;;;;4918020;29;20213;-88
2021/04/09 00:36:23;;;;;;;19.23;8.70;;;2.60;99.90;;;;;;4917734;29;20615;-88
2021/04/09 00:38:49;;;;;;;20.30;9.47;;;2.70;99.90;;;;;;4916031;29;20319;-88
2021/04/09 00:41:15;;;;;;;24.30;9.67;;;1.10;99.90;;;;;;4917830;29;20255;-88
2021/04/09 00:43:41;;;;;;;22.70;9.07;;;1.10;99.90;;;;;;4917443;29;20194;-89
2021/04/09 00:46:08;;;;;;;19.60;10.17;;;2.80;99.90;;;;;;4917830;29;20634;-89
2021/04/09 00:48:34;;;;;;;15.97;8.23;;;2.60;99.90;;;;;;4917623;29;20202;-89
2021/04/09 00:50:59;;;;;;;20.70;9.27;;;1.00;99.90;;;;;;4916168;29;20243;-89
2021/04/09 00:53:27;;;;;;;19.43;9.90;;;2.70;99.90;;;;;;4915943;29;20195;-89
2021/04/09 00:55:54;;;;;;;22.17;8.80;;;0.90;99.90;;;;;;4916210;29;20188;-89
2021/04/09 00:58:20;;;;;;;23.93;8.83;;;1.20;99.90;;;;;;4916255;29;20626;-88
2021/04/09 01:00:46;;;;;;;27.07;9.50;;;0.90;99.90;;;;;;4915795;29;20306;-89
2021/04/09 01:03:12;;;;;;;21.67;8.80;;;1.30;99.90;;;;;;4917213;29;20638;-88
2021/04/09 01:05:38;;;;;;;22.23;9.20;;;2.40;99.90;;;;;;4915654;29;20287;-88
2021/04/09 01:08:06;;;;;;;18.03;9.47;;;0.80;99.90;;;;;;4932047;29;20188;-89
2021/04/09 01:10:32;;;;;;;22.07;9.37;;;0.80;99.90;;;;;;4929639;29;20233;-89
2021/04/09 01:12:58;;;;;;;20.50;9.33;;;0.80;99.90;;;;;;4935955;29;20576;-89
2021/04/09 01:15:24;;;;;;;18.93;9.40;;;1.30;99.90;;;;;;4935099;29;20703;-88
2021/04/09 01:18:22;;;;;;;19.00;8.67;;;1.70;99.90;;;;;;4918658;29;20183;-88
2021/04/09 01:20:56;;;;;;;20.60;9.00;;;0.80;99.90;;;;;;4897442;29;20265;-87
2021/04/09 01:23:50;;;;;;;26.10;9.20;;;2.40;99.90;;;;;;4936067;29;20164;-87
2021/04/09 01:26:34;;;;;;;18.57;9.17;;;0.70;99.90;;;;;;4908559;29;20207;-88
2021/04/09 01:29:21;;;;;;;20.23;9.53;;;0.80;99.90;;;;;;4934560;29;20184;-88
2021/04/09 01:31:52;;;;;;;16.53;8.60;;;0.70;99.90;;;;;;4934358;29;20184;-87
2021/04/09 01:34:18;;;;;;;23.70;9.57;;;0.70;99.90;;;;;;4936308;29;20182;-88
2021/04/09 01:36:53;;;;;;;24.33;9.53;;;0.70;99.90;;;;;;4918698;29;20183;-86
2021/04/09 01:39:36;;;;;;;29.37;10.93;;;2.20;99.90;;;;;;4918735;29;20194;-87
2021/04/09 01:42:07;;;;;;;20.67;9.50;;;1.80;99.90;;;;;;4935724;29;20293;-85
2021/04/09 01:44:34;;;;;;;25.60;9.90;;;0.70;99.90;;;;;;4935971;29;20217;-86
2021/04/09 01:47:03;;;;;;;19.93;9.57;;;1.10;99.90;;;;;;4934019;29;20184;-87
2021/04/09 01:49:31;;;;;;;23.23;9.83;;;0.70;99.90;;;;;;4935562;29;20695;-87
2021/04/09 01:51:59;;;;;;;18.87;8.90;;;1.90;99.90;;;;;;4935202;29;20177;-87
2021/04/09 01:54:26;;;;;;;26.73;10.20;;;0.70;99.90;;;;;;4934714;29;20184;-88
2021/04/09 01:56:53;;;;;;;23.60;9.77;;;1.70;99.90;;;;;;4934097;29;20242;-88
2021/04/09 01:59:20;;;;;;;20.70;8.97;;;2.50;99.90;;;;;;4935649;29;20188;-88
2021/04/09 02:01:48;;;;;;;23.60;10.47;;;1.50;99.90;;;;;;4935133;29;20180;-88
2021/04/09 02:04:17;;;;;;;21.57;10.30;;;2.60;99.90;;;;;;4918480;29;20677;-89
2021/04/09 02:06:43;;;;;;;17.03;9.37;;;0.70;99.90;;;;;;4921495;29;20720;-88
2021/04/09 02:09:11;;;;;;;24.47;10.00;;;0.80;99.90;;;;;;4922032;29;20261;-88
2021/04/09 02:11:39;;;;;;;29.07;9.70;;;2.10;99.90;;;;;;4939371;29;20202;-88
2021/04/09 02:14:10;;;;;;;25.80;9.97;;;0.60;99.90;;;;;;4938965;29;20179;-87
2021/04/09 02:16:36;;;;;;;20.10;10.13;;;1.70;99.90;;;;;;4922494;29;20189;-88
2021/04/09 02:19:04;;;;;;;22.60;10.37;;;2.40;99.90;;;;;;4922057;29;20540;-88
2021/04/09 02:21:34;;;;;;;20.30;9.37;;;1.10;99.90;;;;;;4939391;29;20191;-88
2021/04/09 02:24:00;;;;;;;24.33;9.70;;;0.60;99.90;;;;;;4938862;29;20271;-87
2021/04/09 02:26:30;;;;;;;22.47;9.77;;;2.20;99.90;;;;;;4939193;29;20187;-87
2021/04/09 02:28:58;;;;;;;22.23;9.97;;;2.10;99.90;;;;;;4921716;29;20622;-88
2021/04/09 02:31:23;;;;;;;28.00;10.53;;;2.10;99.90;;;;;;4939055;29;20211;-88
2021/04/09 02:33:49;;;;;;;28.57;11.40;;;2.00;99.90;;;;;;4938988;29;20180;-86
2021/04/09 02:36:19;;;;;;;15.73;7.43;;;1.50;99.90;;;;;;4937884;29;20661;-88
2021/04/09 02:38:49;;;;;;;23.97;10.70;;;0.50;99.90;;;;;;4939114;29;20191;-88
2021/04/09 02:41:17;;;;;;;19.13;10.13;;;2.20;99.90;;;;;;4938801;29;20216;-88
2021/04/09 02:43:43;;;;;;;35.03;11.97;;;0.50;99.90;;;;;;4939289;29;20184;-89
2021/04/09 02:46:15;;;;;;;17.17;8.93;;;1.70;99.90;;;;;;4938594;29;20189;-88
2021/04/09 02:48:52;;;;;;;24.53;10.17;;;0.50;99.90;;;;;;4938800;29;20180;-88
2021/04/09 02:51:20;;;;;;;29.37;11.30;;;1.80;99.90;;;;;;4921680;29;20183;-87
2021/04/09 02:53:48;;;;;;;23.67;10.13;;;1.60;99.90;;;;;;4937605;29;20182;-88
2021/04/09 02:56:14;;;;;;;23.60;9.97;;;0.80;99.90;;;;;;4938062;29;20184;-88
2021/04/09 02:58:41;;;;;;;33.43;12.30;;;0.90;99.90;;;;;;4937226;29;20199;-88
2021/04/09 03:01:07;;;;;;;25.63;11.17;;;0.40;99.90;;;;;;4938365;29;20224;-88
2021/04/09 03:03:36;;;;;;;25.27;11.10;;;2.00;99.90;;;;;;4938675;29;20553;-89
2021/04/09 03:06:04;;;;;;;28.70;11.23;;;2.00;99.90;;;;;;4938311;29;20190;-88
2021/04/09 03:08:30;;;;;;;27.10;10.63;;;0.40;99.90;;;;;;4938728;29;20184;-88
2021/04/09 03:10:56;;;;;;;26.87;11.27;;;2.30;99.90;;;;;;4920848;29;20244;-90
2021/04/09 03:13:21;;;;;;;24.73;10.63;;;2.10;99.90;;;;;;4938943;29;20191;-88
2021/04/09 03:15:55;;;;;;;26.83;10.50;;;0.40;99.90;;;;;;4937081;29;20670;-88
2021/04/09 03:18:22;;;;;;;23.53;10.73;;;0.30;99.90;;;;;;4938349;29;20179;-87
2021/04/09 03:20:48;;;;;;;27.17;10.50;;;0.30;99.90;;;;;;4938190;29;20698;-88
2021/04/09 03:23:14;;;;;;;25.60;10.60;;;2.20;99.90;;;;;;4936847;29;20204;-87
2021/04/09 03:25:40;;;;;;;26.80;10.30;;;1.00;99.90;;;;;;4938025;29;20181;-87
2021/04/09 03:28:06;;;;;;;24.43;10.73;;;0.70;99.90;;;;;;4936608;29;20250;-87
2021/04/09 03:30:33;;;;;;;28.80;10.73;;;0.60;99.90;;;;;;4937005;29;20207;-89
2021/04/09 03:32:58;;;;;;;30.10;10.73;;;0.40;99.90;;;;;;4936470;29;20285;-87
2021/04/09 03:35:24;;;;;;;30.90;10.50;;;0.40;99.90;;;;;;4920981;29;20589;-88
2021/04/09 03:37:50;;;;;;;25.93;11.33;;;0.40;99.90;;;;;;4937869;29;20697;-88
2021/04/09 03:40:17;;;;;;;27.10;11.43;;;2.20;99.90;;;;;;4937353;29;20294;-88
2021/04/09 03:42:43;;;;;;;20.93;10.27;;;1.50;99.90;;;;;;4938149;29;20189;-88
2021/04/09 03:45:10;;;;;;;28.70;10.27;;;0.80;99.90;;;;;;4920513;29;20180;-88
2021/04/09 03:47:36;;;;;;;27.73;10.90;;;0.50;99.90;;;;;;4936447;29;20233;-88
2021/04/09 03:50:02;;;;;;;25.17;9.87;;;2.10;99.90;;;;;;4920264;29;20235;-88
2021/04/09 03:52:28;;;;;;;26.10;10.93;;;0.50;99.90;;;;;;4936368;29;20633;-88
2021/04/09 03:54:53;;;;;;;22.30;9.90;;;0.50;99.90;;;;;;4937624;29;20188;-88
2021/04/09 03:57:19;;;;;;;23.20;10.70;;;0.90;99.90;;;;;;4936517;29;20531;-88
2021/04/09 03:59:45;;;;;;;55.37;23.00;;;0.50;99.90;;;;;;4920297;29;20731;-89
2021/04/09 04:02:10;;;;;;;81.10;36.37;;;2.50;99.90;;;;;;4951036;28;20195;-88
2021/04/09 04:04:36;;;;;;;41.43;21.37;;;1.90;99.90;;;;;;4946485;28;20198;-88
2021/04/09 04:07:02;;;;;;;52.90;26.83;;;0.50;99.90;;;;;;4954199;28;20195;-88
2021/04/09 04:09:28;;;;;;;53.87;24.60;;;0.50;99.90;;;;;;4953657;28;20774;-87
2021/04/09 04:11:54;;;;;;;33.80;13.00;;;0.50;99.90;;;;;;4954597;28;20213;-89
2021/04/09 04:14:19;;;;;;;22.30;10.83;;;0.50;99.90;;;;;;4921240;29;20187;-88
2021/04/09 04:16:45;;;;;;;31.90;14.67;;;0.50;99.90;;;;;;4937238;29;20202;-88
2021/04/09 04:19:13;;;;;;;29.20;11.97;;;2.20;99.90;;;;;;4968357;28;20554;-88
2021/04/09 04:21:39;;;;;;;27.80;12.50;;;1.80;99.90;;;;;;4953887;28;20218;-88
2021/04/09 04:24:05;;;;;;;34.53;16.37;;;0.50;99.90;;;;;;4953727;28;20198;-88
2021/04/09 04:26:30;;;;;;;39.60;19.07;;;0.60;99.90;;;;;;4959641;28;20709;-88
2021/04/09 04:28:56;;;;;;;29.93;13.97;;;0.80;99.90;;;;;;4937129;29;20207;-88
2021/04/09 04:31:21;;;;;;;37.53;16.77;;;0.60;99.90;;;;;;4952888;28;20208;-87
2021/04/09 04:33:47;;;;;;;49.90;22.87;;;1.70;99.90;;;;;;4964943;28;20194;-90
2021/04/09 04:36:13;;;;;;;35.40;14.73;;;0.70;99.90;;;;;;4939193;29;20234;-90
2021/04/09 04:38:39;;;;;;;40.70;18.83;;;0.70;99.90;;;;;;4953230;28;20258;-91
2021/04/09 04:41:04;;;;;;;22.07;11.23;;;2.10;99.90;;;;;;4953508;28;20222;-91
2021/04/09 04:43:31;;;;;;;38.23;19.17;;;0.80;99.90;;;;;;4954032;28;20205;-90
2021/04/09 04:45:56;;;;;;;34.00;17.47;;;1.60;99.90;;;;;;4954870;28;20238;-89
2021/04/09 04:48:22;;;;;;;30.33;12.97;;;1.10;99.90;;;;;;4952297;28;20279;-90
2021/04/09 04:50:48;;;;;;;32.53;15.07;;;2.50;99.90;;;;;;4937277;29;20228;-89
2021/04/09 04:53:13;;;;;;;27.43;13.67;;;1.00;99.90;;;;;;4937369;28;20254;-90
2021/04/09 04:55:39;;;;;;;39.83;18.10;;;2.30;99.90;;;;;;4950871;28;20313;-91
2021/04/09 04:58:05;;;;;;;57.37;22.47;;;1.20;99.90;;;;;;4934327;28;20707;-90
2021/04/09 05:00:30;;;;;;;32.50;14.00;;;1.30;99.90;;;;;;4953450;28;20584;-90
2021/04/09 05:02:56;;;;;;;24.50;13.67;;;1.30;99.90;;;;;;4952527;28;20201;-91
2021/04/09 05:05:21;;;;;;;29.40;12.30;;;1.40;99.90;;;;;;4952197;28;20672;-91
2021/04/09 05:07:47;;;;;;;32.33;12.67;;;2.20;99.90;;;;;;4951323;28;20183;-88
2021/04/09 05:10:13;;;;;;;35.10;12.13;;;2.30;99.90;;;;;;4951437;28;20293;-88
2021/04/09 05:12:39;;;;;;;33.07;9.83;;;1.50;99.90;;;;;;4950634;28;20196;-89
2021/04/09 05:15:06;;;;;;;28.40;12.77;;;1.50;99.90;;;;;;4946731;28;20190;-89
2021/04/09 05:17:32;;;;;;;33.07;13.07;;;1.50;99.90;;;;;;4945576;28;20298;-89
2021/04/09 05:19:58;;;;;;;29.30;11.57;;;1.60;99.90;;;;;;4934748;29;20306;-87
2021/04/09 05:22:24;;;;;;;33.17;11.97;;;2.80;99.90;;;;;;4952182;28;20731;-89
2021/04/09 05:24:50;;;;;;;13.07;7.67;;;3.10;99.90;;;;;;4918214;29;20671;-92
2021/04/09 05:27:16;;;;;;;30.57;12.20;;;1.70;99.90;;;;;;4951685;28;20210;-88
2021/04/09 05:29:42;;;;;;;29.97;12.57;;;2.70;99.90;;;;;;4951978;28;20284;-88
2021/04/09 05:32:10;;;;;;;23.60;10.43;;;1.80;99.90;;;;;;4952931;28;20244;-92
2021/04/09 05:34:36;;;;;;;29.37;13.80;;;1.80;99.90;;;;;;4952268;28;20195;-88
2021/04/09 05:37:03;;;;;;;32.07;14.37;;;2.40;99.90;;;;;;4935422;29;20650;-88
2021/04/09 05:39:28;;;;;;;27.13;12.93;;;2.00;99.90;;;;;;4938225;28;20207;-89
2021/04/09 05:41:54;;;;;;;33.07;13.37;;;2.00;99.90;;;;;;4929002;29;20198;-88
2021/04/09 05:44:21;;;;;;;29.13;12.33;;;2.00;99.90;;;;;;4920461;29;20191;-90
2021/04/09 05:46:47;;;;;;;31.20;12.53;;;2.10;99.90;;;;;;4954634;29;20183;-90
2021/04/09 05:49:13;;;;;;;31.93;13.87;;;2.20;99.90;;;;;;4937740;29;20590;-88
2021/04/09 05:51:39;;;;;;;31.83;14.20;;;2.30;99.90;;;;;;4953480;29;20191;-90
2021/04/09 05:54:05;;;;;;;31.80;12.73;;;3.30;99.90;;;;;;4921547;29;20280;-90
2021/04/09 05:56:30;;;;;;;27.73;13.20;;;2.30;99.90;;;;;;4954669;29;20263;-89
2021/04/09 05:58:56;;;;;;;31.87;14.50;;;2.40;99.90;;;;;;4953283;29;20191;-90
2021/04/09 06:01:22;;;;;;;27.53;12.87;;;3.80;99.90;;;;;;4937163;29;20343;-90
2021/04/09 06:03:48;;;;;;;29.23;12.80;;;4.00;99.90;;;;;;4937248;29;20198;-90
2021/04/09 06:06:14;;;;;;;31.73;13.43;;;2.70;99.90;;;;;;4954398;29;20175;-90
2021/04/09 06:08:40;;;;;;;29.57;12.23;;;2.80;99.90;;;;;;4954590;29;20187;-90
2021/04/09 06:11:05;;;;;;;27.73;13.33;;;2.90;99.90;;;;;;4936758;29;20586;-89
2021/04/09 06:13:31;;;;;;;28.33;13.20;;;2.80;99.90;;;;;;4935684;29;20252;-89
2021/04/09 06:15:57;;;;;;;29.77;13.10;;;4.00;99.90;;;;;;4942924;29;20679;-89
2021/04/09 06:18:23;;;;;;;27.23;12.33;;;4.30;99.90;;;;;;4949563;29;20568;-88
2021/04/09 06:20:48;;;;;;;30.87;12.37;;;3.20;99.90;;;;;;4951971;29;20235;-88
2021/04/09 06:23:14;;;;;;;20.80;10.60;;;3.30;99.90;;;;;;4947379;29;20277;-89
2021/04/09 06:25:40;;;;;;;28.40;12.10;;;3.30;99.90;;;;;;4944732;29;20180;-88
2021/04/09 06:28:06;;;;;;;32.20;12.33;;;3.30;99.90;;;;;;4953873;29;20216;-90
2021/04/09 06:30:31;;;;;;;26.07;13.23;;;3.40;99.90;;;;;;4928697;29;20180;-88
2021/04/09 06:32:57;;;;;;;22.33;11.43;;;3.50;99.90;;;;;;4936474;29;20167;-89
2021/04/09 06:35:22;;;;;;;28.77;11.13;;;3.60;99.90;;;;;;4952793;29;20554;-89
2021/04/09 06:37:48;;;;;;;28.27;13.07;;;3.60;99.90;;;;;;4944814;29;20191;-88
2021/04/09 06:40:14;;;;;;;29.77;11.77;;;3.70;99.90;;;;;;4949383;28;20638;-89
2021/04/09 06:42:41;;;;;;;26.40;11.67;;;3.70;99.90;;;;;;4945950;29;20201;-86
2021/04/09 06:45:08;;;;;;;26.80;10.83;;;3.70;99.90;;;;;;4912943;29;20202;-88
2021/04/09 06:47:34;;;;;;;24.60;10.27;;;3.70;99.90;;;;;;4945690;29;20191;-90
2021/04/09 06:50:01;;;;;;;27.63;11.97;;;3.70;99.90;;;;;;4927208;29;20200;-91
2021/04/09 06:52:27;;;;;;;29.03;11.47;;;3.80;99.90;;;;;;4937405;29;20236;-91
2021/04/09 06:54:53;;;;;;;29.83;11.13;;;4.10;99.90;;;;;;4921734;29;20181;-90
2021/04/09 06:57:19;;;;;;;31.67;11.20;;;4.00;99.90;;;;;;4921823;29;20273;-92
2021/04/09 06:59:46;;;;;;;24.07;12.03;;;4.10;99.90;;;;;;4922887;29;20204;-91
2021/04/09 07:02:17;;;;;;;26.40;12.93;;;4.20;99.90;;;;;;4938863;29;20186;-92
2021/04/09 07:04:46;;;;;;;30.67;11.73;;;4.40;99.90;;;;;;4938947;29;20182;-91
2021/04/09 07:07:14;;;;;;;25.57;11.47;;;4.50;99.90;;;;;;4938198;29;20267;-91
2021/04/09 07:09:41;;;;;;;28.80;10.83;;;4.60;99.90;;;;;;4946279;29;20320;-90
2021/04/09 07:12:19;;;;;;;23.93;12.27;;;4.70;99.90;;;;;;4947446;29;20195;-90
2021/04/09 07:14:57;;;;;;;27.70;12.60;;;4.70;99.90;;;;;;4951727;29;20195;-93
2021/04/09 07:17:26;;;;;;;27.90;13.50;;;4.80;99.90;;;;;;4937455;29;20187;-93
2021/04/09 07:20:05;;;;;;;25.73;12.73;;;4.60;99.90;;;;;;4938205;29;20249;-91
2021/04/09 07:22:31;;;;;;;24.67;10.70;;;4.70;99.90;;;;;;4939670;29;20195;-95
2021/04/09 07:25:18;;;;;;;30.67;11.57;;;4.80;99.90;;;;;;4939217;29;20210;-95
2021/04/09 07:27:46;;;;;;;27.07;13.10;;;4.80;99.90;;;;;;4939631;29;20207;-93
2021/04/09 07:30:17;;;;;;;33.13;12.27;;;4.90;99.90;;;;;;4941868;29;20204;-95
2021/04/09 07:32:43;;;;;;;37.90;14.23;;;4.90;99.90;;;;;;4956804;29;20198;-96
2021/04/09 07:35:14;;;;;;;29.33;12.27;;;5.10;99.90;;;;;;4940294;29;20199;-94
2021/04/09 07:37:57;;;;;;;24.93;11.63;;;5.30;99.90;;;;;;4942561;29;20191;-94
2021/04/09 07:40:31;;;;;;;25.07;11.03;;;5.50;99.90;;;;;;4938519;29;20218;-93
2021/04/09 07:42:57;;;;;;;25.50;12.23;;;5.70;99.90;;;;;;4955892;29;20196;-93
2021/04/09 07:45:26;;;;;;;23.93;9.90;;;5.80;99.90;;;;;;4943268;29;20176;-94
2021/04/09 07:47:57;;;;;;;33.17;9.97;;;5.60;99.90;;;;;;4957562;29;20663;-93
2021/04/09 07:50:41;;;;;;;21.33;10.03;;;5.60;99.90;;;;;;4975131;28;20174;-91
2021/04/09 07:53:18;;;;;;;24.43;9.67;;;5.80;99.90;;;;;;4947263;29;20222;-92
2021/04/09 07:55:44;;;;;;;18.10;9.03;;;6.00;99.90;;;;;;4955617;29;20183;-95
2021/04/09 07:58:23;;;;;;;16.37;7.63;;;6.00;99.90;;;;;;4943523;29;20637;-94
2021/04/09 08:00:51;;;;;;;26.37;10.50;;;6.00;99.90;;;;;;4939524;29;20281;-93
2021/04/09 08:03:36;;;;;;;20.87;9.70;;;6.10;99.90;;;;;;4938295;29;20188;-94
2021/04/09 08:06:23;;;;;;;15.70;8.00;;;6.20;99.90;;;;;;4955360;29;20228;-90
2021/04/09 08:08:48;;;;;;;20.37;9.90;;;6.30;99.00;;;;;;4942796;29;20188;-92
2021/04/09 08:11:37;;;;;;;23.23;11.13;;;6.40;98.90;;;;;;4956187;29;20237;-93
2021/04/09 08:14:15;;;;;;;20.53;9.27;;;6.60;99.40;;;;;;4925471;29;20278;-92
2021/04/09 08:16:40;;;;;;;18.77;8.70;;;6.80;97.70;;;;;;4956474;29;20230;-91
2021/04/09 08:19:15;;;;;;;19.10;10.10;;;6.80;94.20;;;;;;4939972;29;20187;-93
2021/04/09 08:21:48;;;;;;;22.50;10.83;;;6.80;97.30;;;;;;4944138;29;20217;-93
2021/04/09 08:24:14;;;;;;;23.50;10.37;;;7.10;98.00;;;;;;4928509;29;20183;-94
2021/04/09 08:26:41;;;;;;;23.40;10.77;;;7.20;93.80;;;;;;4929867;29;20191;-93
2021/04/09 08:29:09;;;;;;;23.90;10.37;;;8.50;94.30;;;;;;4960769;29;20179;-94
2021/04/09 08:31:37;;;;;;;19.53;9.37;;;7.30;92.00;;;;;;4964169;29;20191;-95
2021/04/09 08:34:03;;;;;;;15.23;6.53;;;7.40;90.80;;;;;;4944420;29;20180;-96
2021/04/09 08:36:29;;;;;;;20.33;10.10;;;7.20;86.90;;;;;;4942748;29;20199;-95
2021/04/09 08:38:55;;;;;;;20.07;8.17;;;7.00;89.90;;;;;;4942150;29;20205;-91
2021/04/09 08:41:21;;;;;;;18.90;9.20;;;7.10;86.10;;;;;;4923876;29;20211;-93
2021/04/09 08:43:48;;;;;;;17.70;8.50;;;6.90;86.10;;;;;;4951833;29;20270;-92
2021/04/09 08:46:14;;;;;;;29.97;8.73;;;6.80;85.80;;;;;;4937934;29;20707;-92
2021/04/09 08:48:40;;;;;;;23.93;9.50;;;6.60;85.00;;;;;;4921307;29;20179;-92
2021/04/09 08:51:08;;;;;;;24.60;9.07;;;6.60;87.60;;;;;;4954505;29;20187;-91
2021/04/09 08:53:34;;;;;;;17.67;6.70;;;6.70;88.30;;;;;;4936967;29;20252;-91
2021/04/09 08:56:01;;;;;;;17.60;7.83;;;6.80;83.20;;;;;;4953551;29;20191;-94
2021/04/09 08:58:30;;;;;;;20.30;8.40;;;7.00;83.90;;;;;;4955174;29;20191;-93
2021/04/09 09:00:55;;;;;;;17.37;7.40;;;7.20;83.30;;;;;;4937279;29;20298;-94
2021/04/09 09:03:28;;;;;;;16.57;7.20;;;7.40;81.50;;;;;;4956320;29;20211;-90
2021/04/09 09:06:02;;;;;;;15.50;7.40;;;7.50;78.90;;;;;;4938296;29;20241;-93
2021/04/09 09:08:51;;;;;;;13.57;7.40;;;7.60;78.90;;;;;;4940185;29;20183;-93
2021/04/09 09:11:52;;;;;;;11.50;5.90;;;7.80;79.10;;;;;;4934195;29;20234;-93
2021/04/09 09:14:47;;;;;;;15.33;6.60;;;8.00;72.50;;;;;;4958849;28;20235;-94
2021/04/09 09:17:19;;;;;;;12.97;5.93;;;8.20;69.10;;;;;;4917330;29;20188;-93
2021/04/09 09:20:10;;;;;;;16.57;5.93;;;8.10;70.60;;;;;;4944110;29;20203;-93
2021/04/09 09:22:51;;;;;;;14.97;5.40;;;8.10;67.60;;;;;;4942978;29;20184;-93
2021/04/09 09:25:34;;;;;;;12.60;5.67;;;8.10;66.20;;;;;;4939764;29;20213;-90
2021/04/09 09:28:00;;;;;;;14.90;6.00;;;7.80;66.80;;;;;;4955582;29;20179;-92
2021/04/09 09:30:28;;;;;;;10.40;6.23;;;7.90;68.80;;;;;;4916533;29;20205;-93
2021/04/09 09:33:22;;;;;;;15.27;6.73;;;8.00;68.50;;;;;;4955180;29;20190;-91
2021/04/09 09:36:11;;;;;;;17.70;7.63;;;8.10;70.20;;;;;;4933774;29;20187;-93
2021/04/09 09:38:54;;;;;;;17.03;6.87;;;8.00;70.60;;;;;;4937549;29;20645;-94
2021/04/09 09:41:42;;;;;;;16.07;6.57;;;8.50;69.70;;;;;;4955154;29;20217;-92
2021/04/09 09:44:39;;;;;;;17.93;7.17;;;8.70;68.70;;;;;;4938046;29;20269;-89
2021/04/09 09:47:26;;;;;;;7.73;5.10;;;8.80;64.60;;;;;;4925921;29;20912;-92
2021/04/09 09:50:04;;;;;;;17.23;6.07;;;8.30;64.40;;;;;;4947598;29;20217;-92
2021/04/09 09:53:04;;;;;;;16.13;6.97;;;8.30;66.40;;;;;;4953086;29;20257;-93
2021/04/09 09:55:37;;;;;;;13.07;5.83;;;8.50;65.90;;;;;;4937095;29;20206;-93
2021/04/09 09:58:13;;;;;;;12.70;5.40;;;8.50;65.00;;;;;;4936489;29;20265;-90
2021/04/09 10:00:59;;;;;;;12.10;5.47;;;8.40;65.70;;;;;;4931380;29;20215;-94
2021/04/09 10:03:36;;;;;;;8.93;5.13;;;8.40;64.10;;;;;;4933797;29;20191;-92
2021/04/09 10:06:12;;;;;;;15.70;5.93;;;8.70;64.90;;;;;;4950717;29;20183;-95
2021/04/09 10:08:39;;;;;;;14.00;6.07;;;9.00;65.00;;;;;;4934033;29;20604;-92
2021/04/09 10:11:08;;;;;;;10.80;6.20;;;9.50;63.70;;;;;;4928931;29;20316;-92
2021/04/09 10:13:37;;;;;;;10.67;5.73;;;9.60;63.30;;;;;;4937997;29;20274;-94
2021/04/09 10:16:23;;;;;;;10.43;5.20;;;9.90;63.30;;;;;;4936353;29;20262;-96
2021/04/09 10:18:56;;;;;;;12.23;3.20;;;10.10;61.20;;;;;;4936014;29;20211;-94
2021/04/09 10:21:25;;;;;;;7.97;3.23;;;9.60;56.80;;;;;;4952592;29;20211;-93
2021/04/09 10:24:02;;;;;;;11.27;5.07;;;9.30;57.80;;;;;;4955202;29;20652;-94
2021/04/09 10:26:29;;;;;;;9.80;4.63;;;9.50;61.80;;;;;;4937210;29;20178;-94
2021/04/09 10:28:54;;;;;;;8.07;3.77;;;9.80;62.60;;;;;;4941749;29;20175;-94
2021/04/09 10:31:23;;;;;;;8.17;3.73;;;9.90;59.10;;;;;;4943007;29;20683;-94
2021/04/09 10:33:55;;;;;;;13.13;4.60;;;10.10;59.40;;;;;;4959415;29;20250;-93
2021/04/09 10:36:25;;;;;;;12.10;4.73;;;10.30;56.50;;;;;;4942422;29;20175;-92
2021/04/09 10:38:57;;;;;;;12.40;4.87;;;9.70;56.60;;;;;;4961445;29;20167;-94
2021/04/09 10:41:37;;;;;;;7.70;3.77;;;10.00;55.80;;;;;;4943512;29;20275;-95
2021/04/09 10:44:05;;;;;;;5.03;3.10;;;10.30;55.80;;;;;;4957943;29;20188;-94
2021/04/09 10:46:33;;;;;;;8.77;3.30;;;10.50;56.40;;;;;;4936222;29;20188;-94
2021/04/09 10:49:13;;;;;;;4.50;2.97;;;10.60;56.50;;;;;;4956518;29;20200;-92
2021/04/09 10:51:44;;;;;;;4.87;3.40;;;10.80;53.20;;;;;;4939405;29;20179;-92
2021/04/09 10:54:12;;;;;;;10.37;3.40;;;10.80;52.90;;;;;;4932191;29;20229;-93
2021/04/09 10:56:39;;;;;;;7.13;2.73;;;10.50;50.50;;;;;;4957430;29;20706;-95
2021/04/09 10:59:08;;;;;;;9.20;3.03;;;10.60;54.20;;;;;;4934005;29;20183;-93
2021/04/09 11:01:34;;;;;;;4.17;2.80;;;10.70;51.30;;;;;;4941461;29;20242;-93
2021/04/09 11:04:00;;;;;;;6.70;3.83;;;11.10;52.10;;;;;;4958888;29;20241;-93
2021/04/09 11:06:27;;;;;;;4.93;2.67;;;11.30;51.50;;;;;;4931261;29;20191;-95
2021/04/09 11:08:57;;;;;;;10.07;2.85;;;11.50;50.90;;;;;;4958110;29;20268;-93
2021/04/09 11:11:31;;;;;;;7.53;3.80;;;11.40;49.10;;;;;;4939679;29;20223;-94
2021/04/09 11:14:02;;;;;;;8.63;3.60;;;11.30;51.10;;;;;;4953899;29;20191;-91
2021/04/09 11:16:27;;;;;;;7.28;3.40;;;11.60;49.00;;;;;;4945534;29;20195;-91
2021/04/09 11:18:56;;;;;;;5.50;3.27;;;11.80;49.40;;;;;;4948150;29;20298;-91
2021/04/09 11:21:43;;;;;;;9.80;2.90;;;12.00;49.40;;;;;;4951745;29;20211;-92
2021/04/09 11:24:30;;;;;;;9.20;3.60;;;11.50;47.50;;;;;;4955236;29;20263;-92
2021/04/09 11:26:58;;;;;;;5.77;3.17;;;11.50;48.70;;;;;;4956068;29;20219;-92
2021/04/09 11:29:32;;;;;;;7.00;3.00;;;10.90;47.90;;;;;;4952244;29;20195;-95
2021/04/09 11:32:18;;;;;;;11.13;3.30;;;10.90;50.00;;;;;;4953349;29;20282;-92
2021/04/09 11:34:47;;;;;;;10.43;3.20;;;11.00;48.60;;;;;;4950069;29;20661;-92
2021/04/09 11:37:14;;;;;;;7.40;3.57;;;10.60;49.20;;;;;;4951608;28;20273;-90
2021/04/09 11:39:48;;;;;;;9.70;2.83;;;10.70;49.20;;;;;;4951816;29;20215;-91
2021/04/09 11:42:14;;;;;;;5.03;2.13;;;10.70;45.90;;;;;;4950471;29;20187;-92
2021/04/09 11:44:40;;;;;;;10.27;2.53;;;10.80;44.70;;;;;;4955122;29;20187;-91
2021/04/09 11:47:23;;;;;;;7.37;2.33;;;10.40;45.40;;;;;;4949039;29;20316;-93
2021/04/09 11:50:18;;;;;;;4.73;2.70;;;10.30;47.30;;;;;;4976239;28;20250;-90
2021/04/09 11:53:13;;;;;;;5.63;2.80;;;10.70;47.50;;;;;;4971428;28;20201;-91
2021/04/09 11:55:44;;;;;;;7.37;2.80;;;11.10;46.90;;;;;;4932541;29;20218;-93
2021/04/09 11:58:18;;;;;;;6.23;2.50;;;11.10;45.80;;;;;;4953392;29;20184;-91
2021/04/09 12:01:02;;;;;;;4.40;2.83;;;11.00;45.90;;;;;;4940723;29;20221;-91
2021/04/09 12:03:39;;;;;;;4.73;2.40;;;10.90;46.60;;;;;;4963239;29;20250;-93
2021/04/09 12:06:14;;;;;;;6.23;2.80;;;11.10;47.10;;;;;;4942167;29;20583;-90
2021/04/09 12:08:42;;;;;;;5.23;2.73;;;11.50;46.70;;;;;;4944234;29;20238;-91
2021/04/09 12:11:11;;;;;;;4.30;2.40;;;11.70;45.60;;;;;;4970840;28;20263;-88
2021/04/09 12:13:41;;;;;;;5.73;2.63;;;11.30;44.60;;;;;;4944421;29;20187;-87
2021/04/09 12:16:13;;;;;;;7.27;2.90;;;10.90;45.40;;;;;;4962147;29;20212;-88
2021/04/09 12:18:39;;;;;;;4.87;2.40;;;11.30;45.30;;;;;;4946324;29;20187;-87
2021/04/09 12:21:05;;;;;;;2.80;2.10;;;11.50;45.50;;;;;;4945034;29;20627;-89
2021/04/09 12:23:31;;;;;;;6.33;2.63;;;11.80;45.70;;;;;;4947194;29;20212;-88
2021/04/09 12:25:58;;;;;;;6.83;3.53;;;11.90;44.00;;;;;;4956387;29;20258;-89
2021/04/09 12:28:24;;;;;;;5.27;2.80;;;12.00;43.70;;;;;;4945409;29;20231;-89
2021/04/09 12:30:51;;;;;;;7.00;2.53;;;11.90;44.10;;;;;;4957351;29;20187;-88
2021/04/09 12:33:18;;;;;;;5.40;3.03;;;11.70;44.30;;;;;;4942821;29;20197;-89
2021/04/09 12:35:43;;;;;;;8.13;3.25;;;12.00;46.40;;;;;;4960839;29;20266;-88
2021/04/09 12:38:09;;;;;;;5.80;2.93;;;12.20;43.70;;;;;;4961208;29;20207;-89
2021/04/09 12:40:35;;;;;;;5.22;2.88;;;11.90;44.40;;;;;;4960406;29;20226;-88
2021/04/09 12:43:03;;;;;;;4.40;2.63;;;11.90;45.70;;;;;;4942674;29;20187;-88
2021/04/09 12:45:29;;;;;;;6.37;2.93;;;11.80;43.30;;;;;;4935440;29;20191;-90
2021/04/09 12:47:54;;;;;;;6.37;3.00;;;12.00;44.20;;;;;;4944214;29;20274;-90
2021/04/09 12:50:20;;;;;;;5.77;3.33;;;11.80;44.60;;;;;;4944312;29;20254;-90
2021/04/09 12:52:47;;;;;;;4.97;2.35;;;11.90;44.20;;;;;;4962893;29;20205;-89
2021/04/09 12:55:13;;;;;;;7.32;3.15;;;12.30;44.30;;;;;;4952256;29;20199;-91
2021/04/09 12:57:39;;;;;;;3.85;2.53;;;12.40;43.00;;;;;;4960907;29;20190;-90